createdAt,value
2019-04-10T00:00:57.730Z,1011.97
2019-04-10T00:01:58.086Z,1011.96
2019-04-10T00:02:57.842Z,1011.98
2019-04-10T00:03:58.681Z,1011.98
2019-04-10T00:04:57.848Z,1011.95
2019-04-10T00:05:58.414Z,1012.01
2019-04-10T00:07:10.367Z,1011.99
2019-04-10T00:07:57.938Z,1011.96
2019-04-10T00:08:58.837Z,1011.99
2019-04-10T00:09:58.000Z,1012.01
2019-04-10T00:10:58.577Z,1012.02
2019-04-10T00:11:58.978Z,1012.00
2019-04-10T00:12:58.314Z,1011.99
2019-04-10T00:13:58.722Z,1012.02
2019-04-10T00:14:58.828Z,1012.02
2019-04-10T00:15:59.077Z,1012.01
2019-04-10T00:16:58.200Z,1012.00
2019-04-10T00:17:58.228Z,1012.03
2019-04-10T00:18:58.257Z,1012.00
2019-04-10T00:19:58.293Z,1012.01
2019-04-10T00:20:58.606Z,1011.98
2019-04-10T00:21:58.346Z,1011.99
2019-04-10T00:22:58.374Z,1012.04
2019-04-10T00:23:58.406Z,1012.01
2019-04-10T00:24:58.435Z,1012.01
2019-04-10T00:25:59.329Z,1011.99
2019-04-10T00:26:58.554Z,1011.99
2019-04-10T00:27:59.035Z,1011.98
2019-04-10T00:28:58.551Z,1011.97
2019-04-10T00:29:58.651Z,1011.97
2019-04-10T00:30:59.555Z,1011.94
2019-04-10T00:32:01.399Z,1011.99
2019-04-10T00:32:58.667Z,1012.02
2019-04-10T00:33:59.007Z,1012.05
2019-04-10T00:34:58.727Z,1012.07
2019-04-10T00:35:59.535Z,1012.01
2019-04-10T00:36:59.626Z,1012.01
2019-04-10T00:37:59.553Z,1012.03
2019-04-10T00:38:58.839Z,1012.01
2019-04-10T00:39:59.169Z,1011.99
2019-04-10T00:40:59.600Z,1012.01
2019-04-10T00:41:58.929Z,1011.98
2019-04-10T00:42:58.959Z,1011.99
2019-04-10T00:43:59.401Z,1012.01
2019-04-10T00:44:59.755Z,1012.03
2019-04-10T00:45:59.913Z,1012.05
2019-04-10T00:46:59.072Z,1012.02
2019-04-10T00:47:59.545Z,1012.05
2019-04-10T00:48:59.139Z,1012.02
2019-04-10T00:49:59.161Z,1012.02
2019-04-10T00:50:59.291Z,1012.04
2019-04-10T00:51:59.590Z,1012.03
2019-04-10T00:52:59.250Z,1012.03
2019-04-10T00:53:59.362Z,1012.00
2019-04-10T00:54:59.468Z,1012.01
2019-04-10T00:55:59.919Z,1011.99
2019-04-10T00:56:59.364Z,1012.00
2019-04-10T00:57:59.394Z,1012.01
2019-04-10T00:58:59.663Z,1011.98
2019-04-10T00:59:59.450Z,1012.02
2019-04-10T01:00:59.482Z,1012.01
2019-04-10T01:02:00.359Z,1012.01
2019-04-10T01:02:59.538Z,1012.00
2019-04-10T01:04:00.203Z,1012.02
2019-04-10T01:05:00.499Z,1011.98
2019-04-10T01:05:59.706Z,1011.99
2019-04-10T01:07:00.168Z,1012.03
2019-04-10T01:08:00.172Z,1012.02
2019-04-10T01:08:59.712Z,1012.03
2019-04-10T01:09:59.814Z,1011.96
2019-04-10T01:11:00.979Z,1012.00
2019-04-10T01:11:59.798Z,1011.98
2019-04-10T01:13:00.648Z,1011.98
2019-04-10T01:13:59.857Z,1012.04
2019-04-10T01:15:00.282Z,1012.04
2019-04-10T01:16:00.690Z,1012.07
2019-04-10T01:17:00.071Z,1012.06
2019-04-10T01:17:59.970Z,1012.06
2019-04-10T01:18:59.997Z,1012.06
2019-04-10T01:20:00.622Z,1012.03
2019-04-10T01:21:00.056Z,1012.01
2019-04-10T01:22:01.010Z,1012.01
2019-04-10T01:23:00.115Z,1012.02
2019-04-10T01:24:00.141Z,1012.00
2019-04-10T01:25:00.172Z,1011.98
2019-04-10T01:26:01.031Z,1011.97
2019-04-10T01:27:01.227Z,1011.98
2019-04-10T01:28:00.519Z,1011.98
2019-04-10T01:29:00.912Z,1011.97
2019-04-10T01:30:00.316Z,1012.00
2019-04-10T01:31:00.343Z,1011.99
2019-04-10T01:32:01.395Z,1012.03
2019-04-10T01:33:00.650Z,1011.99
2019-04-10T01:34:01.039Z,1011.99
2019-04-10T01:35:00.457Z,1012.02
2019-04-10T01:36:00.581Z,1012.01
2019-04-10T01:37:00.653Z,1011.99
2019-04-10T01:38:03.891Z,1012.01
2019-04-10T01:39:00.573Z,1012.05
2019-04-10T01:40:00.601Z,1012.03
2019-04-10T01:41:01.535Z,1012.07
2019-04-10T01:42:00.672Z,1012.08
2019-04-10T01:43:08.348Z,1012.03
2019-04-10T01:44:01.478Z,1012.06
2019-04-10T01:45:00.825Z,1012.02
2019-04-10T01:46:00.772Z,1012.07
2019-04-10T01:47:00.802Z,1012.05
2019-04-10T01:48:01.635Z,1012.05
2019-04-10T01:49:01.693Z,1012.05
2019-04-10T01:50:00.891Z,1012.05
2019-04-10T01:51:01.204Z,1012.02
2019-04-10T01:52:00.945Z,1012.04
2019-04-10T01:53:01.648Z,1012.04
2019-04-10T01:54:01.001Z,1012.07
2019-04-10T01:55:03.170Z,1012.04
2019-04-10T01:56:01.060Z,1012.03
2019-04-10T01:57:01.086Z,1011.97
2019-04-10T01:58:01.115Z,1011.98
2019-04-10T01:59:01.433Z,1011.99
2019-04-10T02:00:01.175Z,1012.06
2019-04-10T02:01:01.860Z,1012.05
2019-04-10T02:02:01.233Z,1012.02
2019-04-10T02:03:01.510Z,1012.03
2019-04-10T02:04:01.296Z,1012.02
2019-04-10T02:05:01.337Z,1011.99
2019-04-10T02:06:01.346Z,1012.03
2019-04-10T02:07:02.164Z,1012.03
2019-04-10T02:08:08.659Z,1012.00
2019-04-10T02:09:02.455Z,1012.03
2019-04-10T02:10:01.702Z,1012.04
2019-04-10T02:11:02.707Z,1012.00
2019-04-10T02:12:02.138Z,1012.00
2019-04-10T02:13:01.555Z,1011.96
2019-04-10T02:14:01.595Z,1011.98
2019-04-10T02:15:02.944Z,1011.99
2019-04-10T02:16:02.731Z,1012.00
2019-04-10T02:17:01.660Z,1012.00
2019-04-10T02:18:01.686Z,1012.00
2019-04-10T02:19:01.785Z,1012.01
2019-04-10T02:20:02.904Z,1011.98
2019-04-10T02:21:01.780Z,1011.97
2019-04-10T02:22:02.418Z,1011.99
2019-04-10T02:23:01.827Z,1011.99
2019-04-10T02:24:02.854Z,1012.00
2019-04-10T02:25:01.886Z,1012.02
2019-04-10T02:26:01.912Z,1012.03
2019-04-10T02:27:02.428Z,1012.00
2019-04-10T02:28:02.787Z,1011.99
2019-04-10T02:29:02.000Z,1012.04
2019-04-10T02:30:02.417Z,1011.98
2019-04-10T02:31:02.819Z,1012.03
2019-04-10T02:32:02.364Z,1012.00
2019-04-10T02:33:02.441Z,1012.05
2019-04-10T02:34:02.141Z,1012.06
2019-04-10T02:35:03.784Z,1012.05
2019-04-10T02:36:03.656Z,1012.01
2019-04-10T02:37:02.584Z,1011.99
2019-04-10T02:38:22.956Z,1012.00
2019-04-10T02:39:15.127Z,1012.00
2019-04-10T02:40:04.646Z,1011.98
2019-04-10T02:41:03.505Z,1011.95
2019-04-10T02:42:02.886Z,1012.01
2019-04-10T02:43:03.242Z,1011.98
2019-04-10T02:44:03.147Z,1011.99
2019-04-10T02:45:02.813Z,1011.99
2019-04-10T02:46:03.894Z,1012.03
2019-04-10T02:47:04.201Z,1012.03
2019-04-10T02:48:04.015Z,1012.06
2019-04-10T02:49:04.061Z,1012.05
2019-04-10T02:50:03.623Z,1012.03
2019-04-10T02:51:02.624Z,1012.01
2019-04-10T02:52:04.005Z,1011.99
2019-04-10T02:53:03.425Z,1012.00
2019-04-10T02:54:02.712Z,1011.99
2019-04-10T02:55:03.797Z,1012.02
2019-04-10T02:56:03.164Z,1012.02
2019-04-10T02:57:03.547Z,1011.99
2019-04-10T02:58:02.817Z,1012.04
2019-04-10T02:59:02.950Z,1012.00
2019-04-10T03:00:03.825Z,1011.99
2019-04-10T03:01:03.253Z,1011.92
2019-04-10T03:02:04.156Z,1011.98
2019-04-10T03:03:03.609Z,1012.04
2019-04-10T03:04:03.422Z,1012.02
2019-04-10T03:05:03.018Z,1012.05
2019-04-10T03:06:03.053Z,1012.02
2019-04-10T03:07:04.326Z,1012.04
2019-04-10T03:08:04.852Z,1012.04
2019-04-10T03:09:18.949Z,1012.01
2019-04-10T03:10:15.227Z,1012.00
2019-04-10T03:11:06.287Z,1012.03
2019-04-10T03:12:03.712Z,1012.04
2019-04-10T03:13:04.613Z,1012.02
2019-04-10T03:14:04.336Z,1011.99
2019-04-10T03:15:04.187Z,1012.00
2019-04-10T03:16:03.350Z,1012.02
2019-04-10T03:17:03.835Z,1012.00
2019-04-10T03:18:04.271Z,1011.95
2019-04-10T03:19:03.412Z,1011.97
2019-04-10T03:20:03.438Z,1012.02
2019-04-10T03:21:03.468Z,1012.01
2019-04-10T03:22:03.876Z,1011.98
2019-04-10T03:23:03.524Z,1012.02
2019-04-10T03:24:04.244Z,1011.99
2019-04-10T03:25:04.500Z,1011.97
2019-04-10T03:26:03.610Z,1011.99
2019-04-10T03:27:03.816Z,1011.99
2019-04-10T03:28:03.664Z,1011.99
2019-04-10T03:29:03.695Z,1012.01
2019-04-10T03:30:05.210Z,1011.99
2019-04-10T03:31:05.805Z,1012.00
2019-04-10T03:32:04.523Z,1011.99
2019-04-10T03:33:06.582Z,1011.98
2019-04-10T03:34:06.087Z,1011.96
2019-04-10T03:35:03.863Z,1011.98
2019-04-10T03:36:03.899Z,1012.01
2019-04-10T03:37:04.379Z,1012.02
2019-04-10T03:38:03.948Z,1012.03
2019-04-10T03:39:06.425Z,1012.05
2019-04-10T03:40:04.949Z,1012.03
2019-04-10T03:41:04.134Z,1012.03
2019-04-10T03:42:04.392Z,1012.04
2019-04-10T03:43:04.088Z,1012.04
2019-04-10T03:44:04.116Z,1012.06
2019-04-10T03:45:05.480Z,1012.04
2019-04-10T03:46:04.175Z,1012.03
2019-04-10T03:47:04.203Z,1012.06
2019-04-10T03:48:04.923Z,1012.09
2019-04-10T03:49:05.311Z,1012.07
2019-04-10T03:50:04.657Z,1012.07
2019-04-10T03:51:04.316Z,1012.08
2019-04-10T03:52:05.130Z,1012.09
2019-04-10T03:53:05.448Z,1012.08
2019-04-10T03:54:04.809Z,1012.14
2019-04-10T03:55:04.932Z,1012.08
2019-04-10T03:56:05.360Z,1012.09
2019-04-10T03:57:04.605Z,1012.09
2019-04-10T03:58:04.520Z,1012.12
2019-04-10T03:59:04.540Z,1012.12
2019-04-10T04:00:05.654Z,1012.11
2019-04-10T04:01:04.837Z,1012.10
2019-04-10T04:02:05.294Z,1012.12
2019-04-10T04:03:04.657Z,1012.12
2019-04-10T04:04:04.957Z,1012.13
2019-04-10T04:05:04.711Z,1012.14
2019-04-10T04:06:04.742Z,1012.17
2019-04-10T04:07:05.002Z,1012.17
2019-04-10T04:08:05.503Z,1012.18
2019-04-10T04:09:09.358Z,1012.19
2019-04-10T04:10:04.850Z,1012.20
2019-04-10T04:11:04.967Z,1012.18
2019-04-10T04:12:04.907Z,1012.19
2019-04-10T04:13:06.105Z,1012.21
2019-04-10T04:14:06.146Z,1012.24
2019-04-10T04:15:05.395Z,1012.26
2019-04-10T04:16:05.019Z,1012.25
2019-04-10T04:17:06.034Z,1012.23
2019-04-10T04:18:05.076Z,1012.22
2019-04-10T04:19:05.917Z,1012.22
2019-04-10T04:20:05.140Z,1012.25
2019-04-10T04:21:05.584Z,1012.22
2019-04-10T04:22:06.114Z,1012.24
2019-04-10T04:23:05.516Z,1012.23
2019-04-10T04:24:05.244Z,1012.24
2019-04-10T04:25:05.275Z,1012.24
2019-04-10T04:26:05.301Z,1012.23
2019-04-10T04:27:05.327Z,1012.24
2019-04-10T04:28:05.359Z,1012.25
2019-04-10T04:29:05.510Z,1012.18
2019-04-10T04:30:06.379Z,1012.20
2019-04-10T04:31:05.442Z,1012.23
2019-04-10T04:32:11.882Z,1012.23
2019-04-10T04:34:08.503Z,1012.29
2019-04-10T04:35:09.084Z,1012.26
2019-04-10T04:37:10.701Z,1012.27
2019-04-10T04:38:11.374Z,1012.24
2019-04-10T04:40:13.186Z,1012.25
2019-04-10T04:41:13.288Z,1012.29
2019-04-10T04:43:05.640Z,1012.34
2019-04-10T04:44:05.931Z,1012.31
2019-04-10T04:46:07.974Z,1012.32
2019-04-10T04:47:07.871Z,1012.30
2019-04-10T04:49:11.545Z,1012.32
2019-04-10T04:50:11.905Z,1012.33
2019-04-10T04:52:16.163Z,1012.28
2019-04-10T04:53:16.232Z,1012.30
2019-04-10T04:55:18.148Z,1012.32
2019-04-10T04:56:18.152Z,1012.31
2019-04-10T04:58:20.375Z,1012.38
2019-04-10T04:59:20.603Z,1012.37
2019-04-10T05:01:23.439Z,1012.38
2019-04-10T05:02:23.464Z,1012.43
2019-04-10T05:04:25.641Z,1012.45
2019-04-10T05:05:25.744Z,1012.45
2019-04-10T05:07:27.846Z,1012.46
2019-04-10T05:08:28.097Z,1012.47
2019-04-10T05:10:29.992Z,1012.51
2019-04-10T05:11:30.678Z,1012.55
2019-04-10T05:13:22.223Z,1012.55
2019-04-10T05:14:21.995Z,1012.54
2019-04-10T05:16:24.861Z,1012.56
2019-04-10T05:17:24.194Z,1012.60
2019-04-10T05:19:26.157Z,1012.61
2019-04-10T05:20:38.744Z,1012.60
2019-04-10T05:22:28.205Z,1012.59
2019-04-10T05:23:28.810Z,1012.58
2019-04-10T05:25:30.256Z,1012.63
2019-04-10T05:26:30.280Z,1012.61
2019-04-10T05:28:32.731Z,1012.64
2019-04-10T05:29:32.441Z,1012.64
2019-04-10T05:31:34.387Z,1012.64
2019-04-10T05:32:35.337Z,1012.66
2019-04-10T05:34:36.410Z,1012.71
2019-04-10T05:35:36.491Z,1012.70
2019-04-10T05:37:38.542Z,1012.74
2019-04-10T05:38:38.704Z,1012.78
2019-04-10T05:40:40.575Z,1012.77
2019-04-10T05:41:40.590Z,1012.78
2019-04-10T05:43:42.656Z,1012.75
2019-04-10T05:44:42.621Z,1012.76
2019-04-10T05:46:45.047Z,1012.77
2019-04-10T05:47:44.899Z,1012.79
2019-04-10T05:49:49.078Z,1012.84
2019-04-10T05:50:56.647Z,1012.82
2019-04-10T05:52:40.189Z,1012.86
2019-04-10T05:53:40.866Z,1012.83
2019-04-10T05:55:43.246Z,1012.84
2019-04-10T05:56:43.286Z,1012.83
2019-04-10T05:58:46.944Z,1012.85
2019-04-10T05:59:46.383Z,1012.84
2019-04-10T06:00:47.131Z,1012.82
2019-04-10T06:01:46.461Z,1012.84
2019-04-10T06:02:46.468Z,1012.83
2019-04-10T06:03:47.305Z,1012.88
2019-04-10T06:04:46.527Z,1012.86
2019-04-10T06:05:46.591Z,1012.87
2019-04-10T06:06:46.598Z,1012.85
2019-04-10T06:07:47.573Z,1012.83
2019-04-10T06:08:47.081Z,1012.85
2019-04-10T06:09:55.847Z,1012.84
2019-04-10T06:10:47.737Z,1012.85
2019-04-10T06:11:47.384Z,1012.85
2019-04-10T06:12:46.806Z,1012.87
2019-04-10T06:13:46.783Z,1012.84
2019-04-10T06:14:46.818Z,1012.85
2019-04-10T06:15:47.490Z,1012.85
2019-04-10T06:16:46.866Z,1012.84
2019-04-10T06:17:47.011Z,1012.85
2019-04-10T06:18:47.169Z,1012.83
2019-04-10T06:19:46.953Z,1012.85
2019-04-10T06:20:47.344Z,1012.84
2019-04-10T06:21:48.086Z,1012.86
2019-04-10T06:22:47.334Z,1012.83
2019-04-10T06:23:47.666Z,1012.86
2019-04-10T06:24:47.094Z,1012.86
2019-04-10T06:25:47.822Z,1012.87
2019-04-10T06:26:47.910Z,1012.87
2019-04-10T06:27:48.337Z,1012.86
2019-04-10T06:28:47.460Z,1012.84
2019-04-10T06:29:47.653Z,1012.90
2019-04-10T06:30:48.068Z,1012.82
2019-04-10T06:31:47.294Z,1012.88
2019-04-10T06:32:47.390Z,1012.90
2019-04-10T06:33:48.385Z,1012.89
2019-04-10T06:34:48.149Z,1012.86
2019-04-10T06:35:47.405Z,1012.90
2019-04-10T06:36:47.435Z,1012.87
2019-04-10T06:37:48.398Z,1012.92
2019-04-10T06:38:47.492Z,1012.88
2019-04-10T06:39:47.520Z,1012.88
2019-04-10T06:40:48.230Z,1012.92
2019-04-10T06:41:48.668Z,1012.92
2019-04-10T06:42:53.102Z,1012.92
2019-04-10T06:43:47.637Z,1012.90
2019-04-10T06:44:47.665Z,1012.90
2019-04-10T06:45:48.258Z,1012.89
2019-04-10T06:46:48.594Z,1012.91
2019-04-10T06:47:48.692Z,1012.91
2019-04-10T06:48:47.984Z,1012.94
2019-04-10T06:49:47.925Z,1012.95
2019-04-10T06:50:47.838Z,1012.89
2019-04-10T06:51:47.866Z,1012.90
2019-04-10T06:52:47.898Z,1012.91
2019-04-10T06:53:59.442Z,1012.95
2019-04-10T06:54:48.990Z,1012.88
2019-04-10T06:55:48.886Z,1012.92
2019-04-10T06:56:48.767Z,1012.95
2019-04-10T06:57:53.831Z,1012.91
2019-04-10T06:58:48.068Z,1012.98
2019-04-10T06:59:48.297Z,1012.96
2019-04-10T07:00:52.939Z,1012.93
2019-04-10T07:01:52.846Z,1012.94
2019-04-10T07:02:48.429Z,1012.95
2019-04-10T07:03:58.518Z,1012.93
2019-04-10T07:04:53.337Z,1013.00
2019-04-10T07:06:02.409Z,1013.01
2019-04-10T07:06:58.054Z,1012.99
2019-04-10T07:07:53.622Z,1013.00
2019-04-10T07:08:50.907Z,1012.99
2019-04-10T07:09:49.511Z,1013.02
2019-04-10T07:10:55.379Z,1012.98
2019-04-10T07:11:53.477Z,1013.02
2019-04-10T07:12:48.476Z,1013.05
2019-04-10T07:13:49.083Z,1013.01
2019-04-10T07:14:50.777Z,1013.04
2019-04-10T07:15:49.656Z,1013.07
2019-04-10T07:16:48.625Z,1013.06
2019-04-10T07:17:49.240Z,1013.07
2019-04-10T07:18:49.437Z,1013.10
2019-04-10T07:19:49.312Z,1013.15
2019-04-10T07:20:48.973Z,1013.15
2019-04-10T07:21:49.145Z,1013.18
2019-04-10T07:22:49.719Z,1013.19
2019-04-10T07:23:49.062Z,1013.16
2019-04-10T07:24:51.393Z,1013.19
2019-04-10T07:25:49.861Z,1013.19
2019-04-10T07:26:49.750Z,1013.22
2019-04-10T07:27:48.931Z,1013.23
2019-04-10T07:28:50.314Z,1013.21
2019-04-10T07:29:51.509Z,1013.25
2019-04-10T07:30:49.005Z,1013.25
2019-04-10T07:31:49.033Z,1013.27
2019-04-10T07:32:49.308Z,1013.27
2019-04-10T07:33:50.771Z,1013.27
2019-04-10T07:34:49.120Z,1013.26
2019-04-10T07:35:50.030Z,1013.26
2019-04-10T07:36:49.765Z,1013.28
2019-04-10T07:37:55.934Z,1013.25
2019-04-10T07:38:49.238Z,1013.29
2019-04-10T07:39:49.270Z,1013.28
2019-04-10T07:40:49.300Z,1013.31
2019-04-10T07:41:49.368Z,1013.32
2019-04-10T07:42:50.339Z,1013.32
2019-04-10T07:43:53.910Z,1013.33
2019-04-10T07:44:49.419Z,1013.34
2019-04-10T07:45:49.449Z,1013.33
2019-04-10T07:46:49.481Z,1013.33
2019-04-10T07:47:49.507Z,1013.32
2019-04-10T07:48:50.267Z,1013.34
2019-04-10T07:49:50.351Z,1013.35
2019-04-10T07:50:49.597Z,1013.40
2019-04-10T07:51:49.628Z,1013.33
2019-04-10T07:52:49.984Z,1013.38
2019-04-10T07:53:49.688Z,1013.40
2019-04-10T07:54:50.375Z,1013.43
2019-04-10T07:56:00.355Z,1013.42
2019-04-10T07:56:49.778Z,1013.42
2019-04-10T07:57:50.672Z,1013.47
2019-04-10T07:58:49.838Z,1013.46
2019-04-10T07:59:49.868Z,1013.52
2019-04-10T08:00:51.312Z,1013.49
2019-04-10T08:01:49.933Z,1013.47
2019-04-10T08:02:51.070Z,1013.54
2019-04-10T08:03:52.385Z,1013.55
2019-04-10T08:04:50.019Z,1013.53
2019-04-10T08:05:50.345Z,1013.55
2019-04-10T08:06:50.245Z,1013.52
2019-04-10T08:07:52.754Z,1013.54
2019-04-10T08:08:51.074Z,1013.51
2019-04-10T08:09:50.177Z,1013.53
2019-04-10T08:10:50.947Z,1013.59
2019-04-10T08:11:50.981Z,1013.57
2019-04-10T08:12:53.619Z,1013.54
2019-04-10T08:13:51.174Z,1013.58
2019-04-10T08:14:50.330Z,1013.61
2019-04-10T08:15:50.352Z,1013.58
2019-04-10T08:16:50.384Z,1013.57
2019-04-10T08:17:51.305Z,1013.58
2019-04-10T08:18:50.448Z,1013.58
2019-04-10T08:19:50.931Z,1013.55
2019-04-10T08:20:50.902Z,1013.58
2019-04-10T08:21:50.543Z,1013.54
2019-04-10T08:22:51.194Z,1013.55
2019-04-10T08:23:51.554Z,1013.56
2019-04-10T08:24:51.224Z,1013.58
2019-04-10T08:25:51.618Z,1013.53
2019-04-10T08:26:50.694Z,1013.54
2019-04-10T08:27:50.717Z,1013.56
2019-04-10T08:28:51.693Z,1013.57
2019-04-10T08:29:50.793Z,1013.57
2019-04-10T08:30:50.811Z,1013.58
2019-04-10T08:31:50.841Z,1013.62
2019-04-10T08:32:57.067Z,1013.63
2019-04-10T08:33:50.902Z,1013.64
2019-04-10T08:34:51.292Z,1013.65
2019-04-10T08:35:50.965Z,1013.64
2019-04-10T08:36:52.681Z,1013.63
2019-04-10T08:37:51.040Z,1013.66
2019-04-10T08:38:51.085Z,1013.63
2019-04-10T08:39:52.529Z,1013.63
2019-04-10T08:40:52.279Z,1013.66
2019-04-10T08:41:52.142Z,1013.66
2019-04-10T08:42:51.345Z,1013.66
2019-04-10T08:43:52.205Z,1013.65
2019-04-10T08:44:52.133Z,1013.63
2019-04-10T08:45:52.568Z,1013.63
2019-04-10T08:46:51.302Z,1013.65
2019-04-10T08:47:51.335Z,1013.63
2019-04-10T08:48:51.890Z,1013.67
2019-04-10T08:49:51.397Z,1013.68
2019-04-10T08:50:52.400Z,1013.67
2019-04-10T08:51:52.128Z,1013.66
2019-04-10T08:52:51.529Z,1013.69
2019-04-10T08:53:54.103Z,1013.65
2019-04-10T08:54:51.552Z,1013.63
2019-04-10T08:55:52.505Z,1013.63
2019-04-10T08:56:52.553Z,1013.66
2019-04-10T08:57:52.434Z,1013.62
2019-04-10T08:58:51.787Z,1013.66
2019-04-10T08:59:52.082Z,1013.62
2019-04-10T09:00:53.024Z,1013.63
2019-04-10T09:01:51.775Z,1013.65
2019-04-10T09:02:52.677Z,1013.62
2019-04-10T09:03:51.995Z,1013.63
2019-04-10T09:04:51.865Z,1013.59
2019-04-10T09:05:52.928Z,1013.66
2019-04-10T09:06:51.949Z,1013.65
2019-04-10T09:07:52.723Z,1013.63
2019-04-10T09:08:53.080Z,1013.64
2019-04-10T09:09:52.177Z,1013.67
2019-04-10T09:10:52.526Z,1013.69
2019-04-10T09:11:52.087Z,1013.65
2019-04-10T09:12:54.417Z,1013.64
2019-04-10T09:13:52.755Z,1013.65
2019-04-10T09:14:52.199Z,1013.66
2019-04-10T09:15:52.215Z,1013.65
2019-04-10T09:16:53.126Z,1013.65
2019-04-10T09:17:52.538Z,1013.63
2019-04-10T09:18:52.312Z,1013.63
2019-04-10T09:19:52.345Z,1013.61
2019-04-10T09:20:53.107Z,1013.63
2019-04-10T09:21:52.409Z,1013.61
2019-04-10T09:23:13.480Z,1013.63
2019-04-10T09:23:55.728Z,1013.58
2019-04-10T09:24:52.874Z,1013.56
2019-04-10T09:25:52.538Z,1013.54
2019-04-10T09:26:52.838Z,1013.56
2019-04-10T09:27:53.802Z,1013.54
2019-04-10T09:28:52.924Z,1013.59
2019-04-10T09:29:52.670Z,1013.62
2019-04-10T09:30:53.196Z,1013.59
2019-04-10T09:31:53.755Z,1013.59
2019-04-10T09:32:52.838Z,1013.59
2019-04-10T09:33:53.761Z,1013.59
2019-04-10T09:34:53.012Z,1013.60
2019-04-10T09:35:53.018Z,1013.58
2019-04-10T09:36:53.450Z,1013.54
2019-04-10T09:37:52.932Z,1013.56
2019-04-10T09:38:52.964Z,1013.57
2019-04-10T09:39:54.648Z,1013.55
2019-04-10T09:40:53.329Z,1013.57
2019-04-10T09:41:53.064Z,1013.56
2019-04-10T09:42:53.096Z,1013.57
2019-04-10T09:43:53.960Z,1013.57
2019-04-10T09:44:53.165Z,1013.54
2019-04-10T09:45:53.617Z,1013.54
2019-04-10T09:46:53.691Z,1013.58
2019-04-10T09:47:53.277Z,1013.60
2019-04-10T09:48:53.299Z,1013.60
2019-04-10T09:49:53.651Z,1013.57
2019-04-10T09:50:53.364Z,1013.60
2019-04-10T09:51:54.297Z,1013.58
2019-04-10T09:52:54.494Z,1013.59
2019-04-10T09:53:53.473Z,1013.62
2019-04-10T09:54:53.499Z,1013.63
2019-04-10T09:55:54.486Z,1013.60
2019-04-10T09:56:53.569Z,1013.63
2019-04-10T09:57:53.979Z,1013.63
2019-04-10T09:58:53.632Z,1013.64
2019-04-10T09:59:54.580Z,1013.64
2019-04-10T10:00:54.443Z,1013.63
2019-04-10T10:01:54.900Z,1013.58
2019-04-10T10:02:53.769Z,1013.59
2019-04-10T10:03:54.788Z,1013.56
2019-04-10T10:04:53.837Z,1013.58
2019-04-10T10:05:54.986Z,1013.56
2019-04-10T10:06:54.064Z,1013.56
2019-04-10T10:07:56.099Z,1013.52
2019-04-10T10:08:54.317Z,1013.55
2019-04-10T10:09:55.756Z,1013.54
2019-04-10T10:10:54.072Z,1013.54
2019-04-10T10:11:54.076Z,1013.57
2019-04-10T10:12:54.109Z,1013.59
2019-04-10T10:13:54.314Z,1013.59
2019-04-10T10:14:54.177Z,1013.58
2019-04-10T10:15:54.573Z,1013.57
2019-04-10T10:16:54.246Z,1013.58
2019-04-10T10:17:55.066Z,1013.57
2019-04-10T10:18:54.315Z,1013.61
2019-04-10T10:19:55.349Z,1013.63
2019-04-10T10:20:54.384Z,1013.61
2019-04-10T10:21:54.418Z,1013.61
2019-04-10T10:22:54.452Z,1013.58
2019-04-10T10:23:54.488Z,1013.56
2019-04-10T10:24:55.082Z,1013.56
2019-04-10T10:25:55.404Z,1013.55
2019-04-10T10:26:55.553Z,1013.57
2019-04-10T10:27:54.626Z,1013.58
2019-04-10T10:28:54.677Z,1013.55
2019-04-10T10:29:55.962Z,1013.56
2019-04-10T10:30:55.721Z,1013.61
2019-04-10T10:32:02.575Z,1013.58
2019-04-10T10:33:58.817Z,1013.63
2019-04-10T10:34:58.952Z,1013.61
2019-04-10T10:37:03.903Z,1013.60
2019-04-10T10:38:03.929Z,1013.62
2019-04-10T10:40:08.296Z,1013.59
2019-04-10T10:41:06.964Z,1013.60
2019-04-10T10:43:00.297Z,1013.59
2019-04-10T10:44:00.591Z,1013.59
2019-04-10T10:46:04.088Z,1013.61
2019-04-10T10:47:04.186Z,1013.58
2019-04-10T10:49:08.419Z,1013.55
2019-04-10T10:50:08.725Z,1013.52
2019-04-10T10:52:12.207Z,1013.52
2019-04-10T10:53:12.327Z,1013.53
2019-04-10T10:55:16.190Z,1013.50
2019-04-10T10:56:16.220Z,1013.51
2019-04-10T10:58:20.273Z,1013.52
2019-04-10T10:59:20.291Z,1013.47
2019-04-10T11:01:24.323Z,1013.47
2019-04-10T11:02:25.466Z,1013.51
2019-04-10T11:04:29.508Z,1013.49
2019-04-10T11:05:30.823Z,1013.48
2019-04-10T11:07:33.003Z,1013.45
2019-04-10T11:08:32.490Z,1013.45
2019-04-10T11:10:36.549Z,1013.43
2019-04-10T11:11:36.961Z,1013.41
2019-04-10T11:13:30.751Z,1013.47
2019-04-10T11:14:29.999Z,1013.45
2019-04-10T11:16:23.222Z,1013.45
2019-04-10T11:17:22.548Z,1013.40
2019-04-10T11:19:27.117Z,1013.44
2019-04-10T11:20:27.961Z,1013.41
2019-04-10T11:22:31.552Z,1013.41
2019-04-10T11:23:30.678Z,1013.48
2019-04-10T11:25:35.881Z,1013.40
2019-04-10T11:26:36.184Z,1013.41
2019-04-10T11:28:39.288Z,1013.41
2019-04-10T11:29:39.058Z,1013.44
2019-04-10T11:31:42.854Z,1013.40
2019-04-10T11:32:44.347Z,1013.41
2019-04-10T11:34:46.939Z,1013.38
2019-04-10T11:35:47.570Z,1013.42
2019-04-10T11:37:53.319Z,1013.43
2019-04-10T11:38:51.966Z,1013.43
2019-04-10T11:40:57.740Z,1013.46
2019-04-10T11:41:55.315Z,1013.44
2019-04-10T11:44:00.293Z,1013.49
2019-04-10T11:44:59.381Z,1013.48
2019-04-10T11:47:05.572Z,1013.48
2019-04-10T11:48:03.516Z,1013.45
2019-04-10T11:50:13.097Z,1013.44
2019-04-10T11:51:09.356Z,1013.42
2019-04-10T11:53:13.665Z,1013.44
2019-04-10T11:54:14.597Z,1013.46
2019-04-10T11:56:05.606Z,1013.50
2019-04-10T11:57:06.764Z,1013.45
2019-04-10T11:59:11.576Z,1013.48
2019-04-10T12:00:14.919Z,1013.46
2019-04-10T12:02:14.269Z,1013.44
2019-04-10T12:03:12.931Z,1013.40
2019-04-10T12:05:19.889Z,1013.39
2019-04-10T12:06:19.107Z,1013.38
2019-04-10T12:08:44.766Z,1013.42
2019-04-10T12:10:18.531Z,1013.39
2019-04-10T12:11:24.774Z,1013.39
2019-04-10T12:12:25.592Z,1013.37
2019-04-10T12:14:29.894Z,1013.43
2019-04-10T12:15:28.746Z,1013.39
2019-04-10T12:17:33.824Z,1013.40
2019-04-10T12:18:32.898Z,1013.46
2019-04-10T12:20:37.491Z,1013.43
2019-04-10T12:21:37.918Z,1013.42
2019-04-10T12:23:40.988Z,1013.44
2019-04-10T12:24:40.940Z,1013.41
2019-04-10T12:26:33.974Z,1013.46
2019-04-10T12:27:33.922Z,1013.51
2019-04-10T12:29:38.477Z,1013.52
2019-04-10T12:30:38.002Z,1013.51
2019-04-10T12:32:43.072Z,1013.46
2019-04-10T12:33:42.427Z,1013.46
2019-04-10T12:35:46.131Z,1013.53
2019-04-10T12:36:46.849Z,1013.45
2019-04-10T12:38:50.171Z,1013.44
2019-04-10T12:39:50.205Z,1013.48
2019-04-10T12:41:55.269Z,1013.42
2019-04-10T12:42:54.624Z,1013.41
2019-04-10T12:44:58.303Z,1013.47
2019-04-10T12:45:58.336Z,1013.45
2019-04-10T12:48:02.393Z,1013.42
2019-04-10T12:49:09.580Z,1013.43
2019-04-10T12:51:05.532Z,1013.41
2019-04-10T12:52:04.473Z,1013.42
2019-04-10T12:54:06.598Z,1013.48
2019-04-10T12:55:06.604Z,1013.44
2019-04-10T12:57:08.793Z,1013.42
2019-04-10T12:58:13.599Z,1013.46
2019-04-10T13:00:04.113Z,1013.38
2019-04-10T13:01:00.837Z,1013.38
2019-04-10T13:03:03.042Z,1013.40
2019-04-10T13:04:03.422Z,1013.39
2019-04-10T13:06:05.279Z,1013.38
2019-04-10T13:07:12.216Z,1013.41
2019-04-10T13:09:12.419Z,1013.43
2019-04-10T13:10:09.123Z,1013.41
2019-04-10T13:12:13.221Z,1013.44
2019-04-10T13:13:13.631Z,1013.43
2019-04-10T13:15:17.320Z,1013.41
2019-04-10T13:16:18.214Z,1013.41
2019-04-10T13:18:10.207Z,1013.42
2019-04-10T13:19:11.195Z,1013.40
2019-04-10T13:21:14.708Z,1013.40
2019-04-10T13:22:14.288Z,1013.44
2019-04-10T13:24:19.418Z,1013.46
2019-04-10T13:25:18.528Z,1013.48
2019-04-10T13:27:23.091Z,1013.46
2019-04-10T13:28:23.383Z,1013.45
2019-04-10T13:30:27.048Z,1013.44
2019-04-10T13:31:27.645Z,1013.42
2019-04-10T13:33:30.996Z,1013.37
2019-04-10T13:34:30.545Z,1013.39
2019-04-10T13:36:35.593Z,1013.36
2019-04-10T13:37:35.608Z,1013.40
2019-04-10T13:39:39.222Z,1013.36
2019-04-10T13:40:39.502Z,1013.40